首页
METAR-TAF:

METAR-TAF

机场 :

Benson, 英格兰

纬度: 51-37N, 经度: 001-05W, 海拔: 63米

当前天气观测

该预报发布于47分钟前的22:50 UTC
风速13节,风向
温度 11°C
湿度 87%
气压 1008 hPa
能见度10公里或以上

METAR: EGUB 032250Z AUTO 36013KT 9999 // BKN009/// 11/09 Q1008

时间: 00:37 (23:37 UTC)

预报

该预报发布于4小时和13分钟前的19:24 UTC
预报有效从03日的 19点(UTC)到 03日的 22点(UTC)
风速10节,风向北转东北
能见度10公里或以上
少量云层高于2000英尺
多云层高于5000英尺
几率 30% :
短暂存在
从 03日的 19点(UTC)到 03日的 20点(UTC)
散云层高于1800英尺
小雨
成为
从 03日的 20点(UTC)到 03日的 22点(UTC)
多云层高于1000英尺
几率 30% :
短暂存在
从 03日的 21点(UTC)到 03日的 22点(UTC)
能見度: 7000
小雨, 毛毛雨

TAF: EGUB 031924Z 0319/0322 02010KT 9999 FEW020 BKN050 PROB30 TEMPO 0319/0320 -RA SCT018 BECMG 0320/0322 BKN010 PROB30 TEMPO 0321/0322 7000 -RADZ

超过4000个机场的气象观测和天气预报(METAR&TAF报告)。

可查询的气象台以黄色和红色小点在地图上表示。

将鼠标移到小点上方,可查看气象台名称。

然后点击查看天气观测和预报。

如需切换地图:点击带黑十字的绿色按钮放大地图;点击带横线的绿色按钮缩小地图;或者点击绿色箭头查看邻近地区的地图。


METAR-TAF: